Time;durP1;ratioP1;P1;durP2;ratioP2;P2;SDS_P1;SDS_P2;PMS_P1;PMS_P2;Temp;Humidity;BMP_temperature;BMP_pressure;BME280_temperature;BME280_humidity;BME280_pressure;Samples;Min_cycle;Max_cycle;Signal;HPM_P1;HPM_P2
2023/09/04 00:02:48;;;;;;;6.47;5.00;;;16.50;99.90;;;;;;5807815;24;20648;-86
2023/09/04 00:33:15;;;;;;;5.77;4.87;;;15.70;99.90;;;;;;5777423;24;20200;-85
2023/09/04 00:37:41;;;;;;;5.23;4.57;;;15.60;99.90;;;;;;5786528;24;20716;-83
2023/09/04 00:58:29;;;;;;;6.17;5.00;;;15.50;99.90;;;;;;5787537;24;20824;-86
2023/09/04 01:28:51;;;;;;;6.07;5.30;;;15.10;99.90;;;;;;5857587;23;20305;-85
2023/09/04 01:49:13;;;;;;;10.03;6.07;;;14.90;99.90;;;;;;5924849;23;20229;-84
2023/09/04 02:14:10;;;;;;;6.20;5.60;;;14.60;99.90;;;;;;5815302;23;20759;-85
2023/09/04 02:45:02;;;;;;;6.00;5.40;;;14.70;99.90;;;;;;5907699;23;20244;-85
2023/09/04 03:10:11;;;;;;;6.97;6.17;;;14.80;99.90;;;;;;5765749;24;20180;-85
2023/09/04 03:40:42;;;;;;;8.87;7.27;;;14.60;99.90;;;;;;5937379;23;20299;-89
2023/09/04 04:06:00;;;;;;;9.47;7.50;;;14.50;99.90;;;;;;6024941;23;20162;-86
2023/09/04 04:31:35;;;;;;;7.33;6.63;;;14.70;99.90;;;;;;5972635;23;20303;-86
2023/09/04 04:35:55;;;;;;;8.17;6.80;;;14.90;99.90;;;;;;5838599;24;20567;-83
2023/09/04 04:51:54;;;;;;;9.97;6.27;;;15.00;99.90;;;;;;5929620;23;20170;-88
2023/09/04 05:12:07;;;;;;;7.33;5.33;;;15.60;99.90;;;;;;5903450;23;20199;-88
2023/09/04 05:42:34;;;;;;;6.83;4.43;;;16.30;99.90;;;;;;5849247;23;20267;-80
2023/09/04 06:02:54;;;;;;;5.53;3.87;;;16.20;99.90;;;;;;5919190;23;20721;-80
2023/09/04 06:28:02;;;;;;;7.50;3.60;;;16.70;99.90;;;;;;5686347;24;20633;-81
2023/09/04 07:49:24;;;;;;;4.93;3.03;;;18.20;92.90;;;;;;5594032;24;21043;-83
2023/09/04 08:14:47;;;;;;;4.67;2.67;;;19.30;87.50;;;;;;6010368;23;20954;-82
2023/09/04 08:54:41;;;;;;;7.47;3.10;;;19.90;85.10;;;;;;6008261;23;20546;-82
2023/09/04 09:15:14;;;;;;;6.00;3.22;;;20.00;85.00;;;;;;5731594;24;20805;-82
2023/09/04 09:46:04;;;;;;;6.85;3.50;;;19.70;86.90;;;;;;5621746;24;20356;-81
2023/09/04 10:05:49;;;;;;;5.30;3.20;;;19.20;87.00;;;;;;5672903;24;21138;-80
2023/09/04 10:31:09;;;;;;;6.13;4.13;;;19.20;87.00;;;;;;5710620;23;20588;-80
2023/09/04 10:46:59;;;;;;;6.45;3.55;;;19.90;82.50;;;;;;5437486;25;20582;-85
2023/09/04 12:18:16;;;;;;;4.68;3.25;;;21.20;69.00;;;;;;5787207;24;20222;-81
2023/09/04 13:08:38;;;;;;;6.45;2.90;;;20.60;73.80;;;;;;5673951;24;21256;-80
2023/09/04 13:34:19;;;;;;;2.90;2.50;;;22.70;62.90;;;;;;5917995;23;20209;-82
2023/09/04 13:59:35;;;;;;;5.93;2.90;;;22.00;62.00;;;;;;5701525;24;20759;-84
2023/09/04 14:34:37;;;;;;;3.35;2.88;;;24.40;57.40;;;;;;5806733;24;21071;-82
2023/09/04 15:00:32;;;;;;;4.40;2.88;;;23.50;53.60;;;;;;5921595;23;20180;-86
2023/09/04 15:25:59;;;;;;;4.63;3.00;;;21.40;58.60;;;;;;5939266;23;20181;-86
2023/09/04 16:01:20;;;;;;;4.80;3.03;;;20.50;62.40;;;;;;6044221;23;20170;-85
2023/09/04 16:26:39;;;;;;;3.13;2.83;;;19.80;73.00;;;;;;5931898;23;20240;-87
2023/09/04 17:02:25;;;;;;;5.60;3.27;;;18.50;81.00;;;;;;6201617;22;20196;-86
2023/09/04 17:06:45;;;;;;;5.17;2.87;;;18.40;82.10;;;;;;6071249;22;20439;-86
2023/09/04 17:32:45;;;;;;;6.93;4.07;;;17.10;97.90;;;;;;6025631;23;20163;-87
2023/09/04 17:53:03;;;;;;;7.57;5.20;;;15.90;99.90;;;;;;6024201;23;20699;-86
2023/09/04 18:23:21;;;;;;;8.10;4.97;;;14.80;99.90;;;;;;5924105;23;20221;-87
2023/09/04 18:38:48;;;;;;;7.63;6.00;;;14.50;99.90;;;;;;6031031;23;20290;-85
2023/09/04 19:04:04;;;;;;;12.27;6.93;;;14.10;99.90;;;;;;6160128;22;20156;-84
2023/09/04 20:10:03;;;;;;;16.80;8.60;;;13.20;99.90;;;;;;6199000;22;20171;-85
2023/09/04 20:40:08;;;;;;;12.07;9.10;;;12.90;99.90;;;;;;5887664;23;20210;-86
2023/09/04 21:05:35;;;;;;;15.43;9.90;;;12.60;99.90;;;;;;5974261;23;20280;-84
2023/09/04 23:38:05;;;;;;;32.90;19.30;;;11.30;99.90;;;;;;6067855;23;20286;-86
